createdAt,value
2022-08-15T00:02:33.791Z,10.82
2022-08-15T00:07:48.424Z,10.02
2022-08-15T00:12:51.259Z,10.40
2022-08-15T00:17:54.711Z,10.77
2022-08-15T00:22:57.932Z,10.68
2022-08-15T00:28:00.228Z,10.50
2022-08-15T00:33:18.825Z,10.65
2022-08-15T00:38:28.197Z,10.82
2022-08-15T00:43:48.192Z,11.35
2022-08-15T00:48:51.448Z,11.30
2022-08-15T00:53:58.560Z,11.40
2022-08-15T00:59:05.812Z,11.35
2022-08-15T01:04:18.021Z,11.60
2022-08-15T01:09:21.292Z,11.35
2022-08-15T01:14:55.846Z,11.13
2022-08-15T01:20:25.029Z,11.93
2022-08-15T01:26:42.385Z,11.32
2022-08-15T01:31:04.534Z,11.60
2022-08-15T01:36:32.846Z,12.52
2022-08-15T01:41:36.649Z,11.30
2022-08-15T01:46:52.815Z,11.95
2022-08-15T01:51:58.521Z,12.27
2022-08-15T01:57:01.199Z,11.65
2022-08-15T02:02:39.777Z,12.18
2022-08-15T02:07:32.532Z,11.73
2022-08-15T02:13:12.480Z,11.57
2022-08-15T02:18:00.318Z,11.13
2022-08-15T02:23:07.853Z,11.85
2022-08-15T02:28:34.799Z,10.90
2022-08-15T02:33:39.147Z,11.50
2022-08-15T02:38:47.452Z,11.52
2022-08-15T02:43:52.244Z,11.50
2022-08-15T02:48:57.282Z,11.55
2022-08-15T02:54:00.161Z,12.13
2022-08-15T02:59:22.643Z,11.52
2022-08-15T03:04:28.127Z,11.40
2022-08-15T03:09:32.165Z,10.80
2022-08-15T03:14:37.216Z,11.40
2022-08-15T03:19:39.867Z,10.68
2022-08-15T03:24:43.966Z,10.80
2022-08-15T03:29:50.437Z,11.40
2022-08-15T03:34:54.502Z,10.95
2022-08-15T03:39:58.291Z,10.60
2022-08-15T03:45:13.792Z,11.50
2022-08-15T03:50:24.790Z,12.23
2022-08-15T03:55:32.479Z,11.90
2022-08-15T04:00:51.535Z,11.48
2022-08-15T04:05:58.643Z,11.57
2022-08-15T04:11:02.948Z,11.32
2022-08-15T04:17:00.573Z,11.30
2022-08-15T04:21:27.068Z,11.05
2022-08-15T04:26:28.955Z,11.77
2022-08-15T04:31:32.685Z,11.77
2022-08-15T04:36:37.649Z,11.45
2022-08-15T04:41:39.545Z,11.82
2022-08-15T04:46:52.422Z,11.40
2022-08-15T04:51:55.425Z,11.13
2022-08-15T04:56:58.913Z,11.70
2022-08-15T05:02:49.494Z,11.68
2022-08-15T05:07:27.394Z,11.20
2022-08-15T05:12:33.201Z,11.63
2022-08-15T05:17:57.039Z,10.63
2022-08-15T05:23:08.121Z,11.45
2022-08-15T05:28:29.093Z,11.52
2022-08-15T05:33:56.494Z,12.25
2022-08-15T05:38:59.757Z,11.25
2022-08-15T05:44:03.803Z,10.90
2022-08-15T05:49:51.435Z,10.43
2022-08-15T05:55:17.475Z,17.23
2022-08-15T06:00:19.484Z,10.32
2022-08-15T06:05:33.700Z,9.82
2022-08-15T06:10:51.385Z,11.50
2022-08-15T06:16:46.498Z,10.23
2022-08-15T06:21:51.093Z,10.90
2022-08-15T06:27:00.941Z,10.52
2022-08-15T06:32:22.732Z,11.45
2022-08-15T06:38:00.124Z,10.13
2022-08-15T06:43:03.259Z,9.98
2022-08-15T06:48:59.367Z,10.18
2022-08-15T06:53:59.832Z,9.15
2022-08-15T06:59:38.162Z,10.32
2022-08-15T07:05:19.877Z,9.80
2022-08-15T07:10:38.189Z,9.40
2022-08-15T07:15:57.796Z,9.48
2022-08-15T07:21:12.251Z,10.30
2022-08-15T07:26:16.811Z,9.15
2022-08-15T07:31:29.462Z,8.63
2022-08-15T07:36:58.682Z,8.60
2022-08-15T07:42:28.760Z,8.80
2022-08-15T07:47:35.048Z,8.40
2022-08-15T07:52:55.053Z,8.60
2022-08-15T07:58:24.339Z,8.38
2022-08-15T08:03:34.139Z,8.43
2022-08-15T08:08:46.050Z,7.93
2022-08-15T08:14:40.672Z,8.02
2022-08-15T08:19:49.353Z,7.78
2022-08-15T08:25:15.601Z,8.27
2022-08-15T08:30:43.817Z,7.80
2022-08-15T08:35:55.254Z,7.60
2022-08-15T08:41:45.044Z,8.23
2022-08-15T08:47:16.087Z,8.38
2022-08-15T08:52:27.096Z,8.00
2022-08-15T08:57:41.985Z,8.18
2022-08-15T09:02:51.467Z,7.68
2022-08-15T09:07:58.157Z,7.75
2022-08-15T09:13:24.597Z,7.80
2022-08-15T09:18:34.848Z,8.15
2022-08-15T09:23:51.716Z,7.97
2022-08-15T09:29:23.191Z,7.90
2022-08-15T09:34:51.638Z,8.18
2022-08-15T09:41:11.575Z,7.75
2022-08-15T09:45:49.770Z,8.15
2022-08-15T09:51:19.524Z,6.85
2022-08-15T09:56:28.672Z,7.32
2022-08-15T10:01:41.897Z,7.43
2022-08-15T10:07:30.936Z,7.78
2022-08-15T10:12:34.488Z,7.43
2022-08-15T10:17:57.370Z,7.50
2022-08-15T10:23:01.291Z,7.22
2022-08-15T10:28:38.025Z,7.10
2022-08-15T10:33:35.540Z,7.03
2022-08-15T10:38:50.232Z,7.57
2022-08-15T10:44:34.359Z,7.35
2022-08-15T10:49:58.934Z,7.63
2022-08-15T10:55:55.992Z,7.45
2022-08-15T11:00:50.782Z,7.75
2022-08-15T11:06:07.030Z,7.20
2022-08-15T11:11:11.410Z,7.45
2022-08-15T11:16:31.704Z,6.97
2022-08-15T11:21:44.098Z,7.60
2022-08-15T11:26:53.686Z,7.50
2022-08-15T11:32:01.099Z,7.55
2022-08-15T11:37:27.596Z,6.63
2022-08-15T11:42:34.393Z,7.28
2022-08-15T11:47:46.375Z,6.50
2022-08-15T11:52:51.689Z,7.30
2022-08-15T11:57:58.267Z,7.68
2022-08-15T12:03:05.023Z,7.43
2022-08-15T12:08:28.642Z,7.25
2022-08-15T12:13:33.511Z,7.68
2022-08-15T12:18:49.465Z,7.05
2022-08-15T12:24:00.834Z,7.15
2022-08-15T12:29:04.921Z,7.53
2022-08-15T12:34:28.360Z,7.15
2022-08-15T12:39:35.912Z,7.63
2022-08-15T12:44:39.079Z,7.00
2022-08-15T12:49:47.546Z,6.90
2022-08-15T12:54:52.759Z,8.68
2022-08-15T12:59:56.208Z,6.88
2022-08-15T13:04:59.255Z,6.80
2022-08-15T13:10:34.003Z,6.40
2022-08-15T13:15:28.141Z,4.82
2022-08-15T13:20:57.252Z,5.15
2022-08-15T13:26:00.412Z,6.75
2022-08-15T13:31:06.273Z,7.03
2022-08-15T13:36:29.917Z,7.40
2022-08-15T13:41:48.393Z,9.82
2022-08-15T13:46:54.440Z,8.50
2022-08-15T13:52:25.089Z,8.82
2022-08-15T13:57:26.239Z,8.52
2022-08-15T14:02:35.803Z,8.18
2022-08-15T14:07:51.009Z,7.88
2022-08-15T14:12:57.069Z,7.43
2022-08-15T14:18:01.707Z,8.32
2022-08-15T14:23:04.049Z,7.45
2022-08-15T14:34:37.159Z,7.78
2022-08-15T14:38:59.397Z,8.18
2022-08-15T14:44:02.949Z,8.35
2022-08-15T14:49:08.157Z,7.43
2022-08-15T14:54:40.863Z,8.25
2022-08-15T14:59:55.891Z,7.68
2022-08-15T15:05:02.416Z,8.13
2022-08-15T15:10:07.044Z,7.25
2022-08-15T15:15:09.206Z,7.95
2022-08-15T15:20:18.263Z,14.52
2022-08-15T15:25:21.173Z,7.53
2022-08-15T15:30:23.271Z,7.30
2022-08-15T15:35:26.121Z,9.45
2022-08-15T15:40:28.763Z,7.72
2022-08-15T15:45:33.876Z,8.05
2022-08-15T15:50:35.871Z,7.20
2022-08-15T15:55:43.027Z,6.82
2022-08-15T16:00:47.253Z,7.70
2022-08-15T16:07:01.253Z,6.85
2022-08-15T16:11:26.046Z,6.47
2022-08-15T16:17:15.096Z,7.35
2022-08-15T16:22:50.873Z,8.02
2022-08-15T16:28:03.161Z,7.35
2022-08-15T16:33:08.853Z,7.20
2022-08-15T16:39:06.879Z,13.45
2022-08-15T16:43:54.698Z,7.15
2022-08-15T16:49:24.305Z,7.22
2022-08-15T16:55:01.362Z,6.97
2022-08-15T17:00:18.410Z,6.57
2022-08-15T17:05:59.987Z,6.72
2022-08-15T17:11:14.672Z,6.00
2022-08-15T17:16:41.005Z,6.38
2022-08-15T17:22:18.406Z,6.63
2022-08-15T17:27:56.895Z,6.55
2022-08-15T17:33:06.693Z,7.13
2022-08-15T17:38:09.274Z,7.70
2022-08-15T17:43:24.079Z,7.90
2022-08-15T17:48:29.888Z,8.40
2022-08-15T17:53:35.874Z,16.75
2022-08-15T17:58:53.982Z,10.15
2022-08-15T18:04:00.622Z,10.27
2022-08-15T18:09:11.672Z,10.70
2022-08-15T18:14:40.177Z,9.68
2022-08-15T18:19:37.338Z,9.18
2022-08-15T18:24:52.047Z,9.32
2022-08-15T18:30:02.073Z,9.90
2022-08-15T18:35:18.288Z,11.68
2022-08-15T18:40:53.322Z,11.27
2022-08-15T18:46:11.891Z,10.93
2022-08-15T18:51:16.439Z,10.32
2022-08-15T18:56:25.970Z,9.55
2022-08-15T19:01:32.893Z,10.55
2022-08-15T19:06:51.735Z,10.20
2022-08-15T19:12:07.197Z,10.32
2022-08-15T19:17:31.478Z,9.55
2022-08-15T19:22:33.850Z,9.20
2022-08-15T19:28:00.156Z,9.13
2022-08-15T19:33:19.783Z,9.63
2022-08-15T19:38:41.186Z,10.40
2022-08-15T19:44:01.751Z,9.85
2022-08-15T19:49:34.633Z,10.52
2022-08-15T19:55:39.402Z,10.43
2022-08-15T20:00:57.572Z,10.90
2022-08-15T20:06:20.973Z,11.25
2022-08-15T20:11:42.234Z,11.77
2022-08-15T20:17:29.216Z,12.13
2022-08-15T20:23:40.982Z,12.43
2022-08-15T20:28:44.266Z,11.57
2022-08-15T20:34:01.370Z,12.35
2022-08-15T20:39:05.725Z,12.02
2022-08-15T20:44:44.237Z,11.90
2022-08-15T20:49:48.045Z,12.73
2022-08-15T20:54:56.018Z,11.80
2022-08-15T20:59:58.179Z,13.25
2022-08-15T21:05:41.984Z,11.48
2022-08-15T21:11:11.097Z,10.52
2022-08-15T21:16:47.665Z,11.65
2022-08-15T21:21:56.167Z,11.38
2022-08-15T21:27:13.910Z,12.05
2022-08-15T21:32:32.458Z,12.13
2022-08-15T21:37:53.993Z,12.27
2022-08-15T21:42:56.175Z,11.65
2022-08-15T21:48:34.553Z,12.60
2022-08-15T21:53:37.695Z,13.30
2022-08-15T21:59:15.812Z,13.57
2022-08-15T22:04:39.018Z,14.30
2022-08-15T22:10:01.765Z,13.90
2022-08-15T22:15:12.150Z,13.93
2022-08-15T22:20:32.712Z,13.70
2022-08-15T22:25:41.677Z,14.50
2022-08-15T22:30:46.284Z,13.80
2022-08-15T22:35:53.027Z,14.13
2022-08-15T22:40:55.227Z,14.13
2022-08-15T22:46:29.135Z,13.98
2022-08-15T22:51:41.087Z,13.57
2022-08-15T22:56:52.734Z,14.77
2022-08-15T23:02:05.699Z,15.05
2022-08-15T23:07:24.651Z,14.25
2022-08-15T23:12:33.855Z,14.43
2022-08-15T23:18:00.515Z,13.80
2022-08-15T23:23:06.636Z,15.25
2022-08-15T23:28:08.558Z,15.48
2022-08-15T23:33:27.540Z,14.75
2022-08-15T23:38:32.690Z,15.45
2022-08-15T23:43:34.357Z,16.23
2022-08-15T23:48:57.054Z,14.68
2022-08-15T23:53:59.021Z,14.93
2022-08-15T23:59:01.011Z,14.98
